sensor_id;sensor_type;location;lat;lon;timestamp;pressure;altitude;pressure_sealevel;temperature;humidity
27587;BME280;15019;49.002;8.420;2022-09-13T00:02:03;99776.63;;;15.25;100.00
27587;BME280;15019;49.002;8.420;2022-09-13T00:04:28;99775.09;;;15.18;100.00
27587;BME280;15019;49.002;8.420;2022-09-13T00:06:53;99779.38;;;15.17;100.00
27587;BME280;15019;49.002;8.420;2022-09-13T00:09:19;99766.81;;;15.10;100.00
27587;BME280;15019;49.002;8.420;2022-09-13T00:11:44;99771.16;;;15.06;100.00
27587;BME280;15019;49.002;8.420;2022-09-13T00:14:10;99772.09;;;15.04;100.00
27587;BME280;15019;49.002;8.420;2022-09-13T00:16:35;99772.16;;;15.00;100.00
27587;BME280;15019;49.002;8.420;2022-09-13T00:19:00;99767.31;;;14.91;100.00
27587;BME280;15019;49.002;8.420;2022-09-13T00:21:26;99762.28;;;14.88;100.00
27587;BME280;15019;49.002;8.420;2022-09-13T00:23:53;99758.91;;;14.86;100.00
27587;BME280;15019;49.002;8.420;2022-09-13T00:26:21;99753.16;;;14.80;100.00
27587;BME280;15019;49.002;8.420;2022-09-13T00:28:52;99755.91;;;14.72;100.00
27587;BME280;15019;49.002;8.420;2022-09-13T00:31:18;99741.56;;;14.67;100.00
27587;BME280;15019;49.002;8.420;2022-09-13T00:33:44;99743.91;;;14.74;100.00
27587;BME280;15019;49.002;8.420;2022-09-13T00:36:10;99737.13;;;14.73;100.00
27587;BME280;15019;49.002;8.420;2022-09-13T00:38:37;99739.78;;;14.70;100.00
27587;BME280;15019;49.002;8.420;2022-09-13T00:41:04;99743.16;;;14.72;100.00
27587;BME280;15019;49.002;8.420;2022-09-13T00:43:58;99743.25;;;14.68;100.00
27587;BME280;15019;49.002;8.420;2022-09-13T00:48:56;99739.53;;;14.47;100.00
27587;BME280;15019;49.002;8.420;2022-09-13T00:51:24;99741.28;;;14.45;100.00
27587;BME280;15019;49.002;8.420;2022-09-13T00:53:51;99746.16;;;14.54;100.00
27587;BME280;15019;49.002;8.420;2022-09-13T00:56:45;99743.72;;;14.49;100.00
27587;BME280;15019;49.002;8.420;2022-09-13T00:59:20;99735.38;;;14.43;100.00
27587;BME280;15019;49.002;8.420;2022-09-13T01:01:49;99742.16;;;14.44;100.00
27587;BME280;15019;49.002;8.420;2022-09-13T01:04:18;99739.84;;;14.32;100.00
27587;BME280;15019;49.002;8.420;2022-09-13T01:06:45;99748.25;;;14.37;100.00
27587;BME280;15019;49.002;8.420;2022-09-13T01:09:11;99755.66;;;14.47;100.00
27587;BME280;15019;49.002;8.420;2022-09-13T01:11:45;99751.25;;;14.54;100.00
27587;BME280;15019;49.002;8.420;2022-09-13T01:14:11;99747.69;;;14.61;100.00
27587;BME280;15019;49.002;8.420;2022-09-13T01:16:37;99742.47;;;14.64;100.00
27587;BME280;15019;49.002;8.420;2022-09-13T01:19:03;99746.44;;;14.76;100.00
27587;BME280;15019;49.002;8.420;2022-09-13T01:43:31;99777.09;;;14.39;100.00
27587;BME280;15019;49.002;8.420;2022-09-13T01:48:58;99768.72;;;14.34;100.00
27587;BME280;15019;49.002;8.420;2022-09-13T01:51:35;99760.91;;;14.41;100.00
27587;BME280;15019;49.002;8.420;2022-09-13T01:56:59;99766.00;;;14.41;100.00
27587;BME280;15019;49.002;8.420;2022-09-13T02:02:24;99780.06;;;14.20;100.00
27587;BME280;15019;49.002;8.420;2022-09-13T02:04:53;99777.59;;;14.19;100.00
27587;BME280;15019;49.002;8.420;2022-09-13T02:07:23;99782.97;;;14.07;100.00
27587;BME280;15019;49.002;8.420;2022-09-13T02:09:58;99775.63;;;13.91;100.00
27587;BME280;15019;49.002;8.420;2022-09-13T02:12:26;99776.47;;;13.92;100.00
27587;BME280;15019;49.002;8.420;2022-09-13T02:15:11;99786.72;;;13.89;100.00
27587;BME280;15019;49.002;8.420;2022-09-13T02:17:43;99791.81;;;13.89;100.00
27587;BME280;15019;49.002;8.420;2022-09-13T02:20:21;99780.91;;;13.84;100.00
27587;BME280;15019;49.002;8.420;2022-09-13T02:22:53;99781.63;;;13.89;100.00
27587;BME280;15019;49.002;8.420;2022-09-13T02:25:22;99771.38;;;13.92;100.00
27587;BME280;15019;49.002;8.420;2022-09-13T02:27:52;99767.16;;;13.91;100.00
27587;BME280;15019;49.002;8.420;2022-09-13T02:30:19;99766.28;;;13.92;100.00
27587;BME280;15019;49.002;8.420;2022-09-13T02:32:46;99769.75;;;13.88;100.00
27587;BME280;15019;49.002;8.420;2022-09-13T02:35:18;99759.66;;;13.85;100.00
27587;BME280;15019;49.002;8.420;2022-09-13T02:37:51;99761.34;;;13.84;100.00
27587;BME280;15019;49.002;8.420;2022-09-13T02:40:24;99756.22;;;13.86;100.00
27587;BME280;15019;49.002;8.420;2022-09-13T02:43:06;99765.63;;;13.84;100.00
27587;BME280;15019;49.002;8.420;2022-09-13T02:45:51;99759.72;;;13.82;100.00
27587;BME280;15019;49.002;8.420;2022-09-13T02:48:48;99751.34;;;13.77;100.00
27587;BME280;15019;49.002;8.420;2022-09-13T02:51:23;99752.28;;;13.71;100.00
27587;BME280;15019;49.002;8.420;2022-09-13T02:54:15;99749.78;;;13.70;100.00
27587;BME280;15019;49.002;8.420;2022-09-13T02:59:15;99761.84;;;13.62;100.00
27587;BME280;15019;49.002;8.420;2022-09-13T03:01:47;99759.38;;;13.57;100.00
27587;BME280;15019;49.002;8.420;2022-09-13T03:04:13;99757.69;;;13.56;100.00
27587;BME280;15019;49.002;8.420;2022-09-13T03:06:39;99748.31;;;13.58;100.00
27587;BME280;15019;49.002;8.420;2022-09-13T03:09:05;99760.88;;;13.67;100.00
27587;BME280;15019;49.002;8.420;2022-09-13T03:17:27;99731.22;;;13.65;100.00
27587;BME280;15019;49.002;8.420;2022-09-13T03:20:05;99744.81;;;13.64;100.00
27587;BME280;15019;49.002;8.420;2022-09-13T03:28:02;99736.38;;;13.62;100.00
27587;BME280;15019;49.002;8.420;2022-09-13T03:30:29;99742.94;;;13.72;100.00
27587;BME280;15019;49.002;8.420;2022-09-13T03:33:26;99734.56;;;13.67;100.00
27587;BME280;15019;49.002;8.420;2022-09-13T03:41:45;99741.25;;;13.71;100.00
27587;BME280;15019;49.002;8.420;2022-09-13T03:44:14;99735.34;;;13.69;100.00
27587;BME280;15019;49.002;8.420;2022-09-13T03:46:44;99716.81;;;13.64;100.00
27587;BME280;15019;49.002;8.420;2022-09-13T03:49:14;99720.16;;;13.66;100.00
27587;BME280;15019;49.002;8.420;2022-09-13T03:51:42;99724.19;;;13.76;100.00
27587;BME280;15019;49.002;8.420;2022-09-13T03:54:13;99715.59;;;13.80;100.00
27587;BME280;15019;49.002;8.420;2022-09-13T03:56:40;99718.88;;;13.85;100.00
27587;BME280;15019;49.002;8.420;2022-09-13T03:59:06;99714.59;;;13.87;100.00
27587;BME280;15019;49.002;8.420;2022-09-13T04:01:32;99718.78;;;13.88;100.00
27587;BME280;15019;49.002;8.420;2022-09-13T04:03:57;99728.00;;;13.95;100.00
27587;BME280;15019;49.002;8.420;2022-09-13T04:06:23;99731.34;;;13.97;100.00
27587;BME280;15019;49.002;8.420;2022-09-13T04:08:48;99745.00;;;13.95;100.00
27587;BME280;15019;49.002;8.420;2022-09-13T04:11:13;99749.31;;;13.91;100.00
27587;BME280;15019;49.002;8.420;2022-09-13T04:13:39;99746.03;;;13.86;100.00
27587;BME280;15019;49.002;8.420;2022-09-13T04:16:05;99741.72;;;13.88;100.00
27587;BME280;15019;49.002;8.420;2022-09-13T04:18:31;99743.38;;;13.90;100.00
27587;BME280;15019;49.002;8.420;2022-09-13T04:20:58;99746.88;;;13.86;100.00
27587;BME280;15019;49.002;8.420;2022-09-13T04:23:27;99752.66;;;13.93;100.00
27587;BME280;15019;49.002;8.420;2022-09-13T04:25:53;99750.94;;;13.95;100.00
27587;BME280;15019;49.002;8.420;2022-09-13T04:28:20;99750.09;;;13.95;100.00
27587;BME280;15019;49.002;8.420;2022-09-13T04:30:47;99743.31;;;13.93;100.00
27587;BME280;15019;49.002;8.420;2022-09-13T04:33:13;99729.88;;;13.87;100.00
27587;BME280;15019;49.002;8.420;2022-09-13T04:35:39;99734.06;;;13.88;100.00
27587;BME280;15019;49.002;8.420;2022-09-13T04:38:05;99727.94;;;13.98;100.00
27587;BME280;15019;49.002;8.420;2022-09-13T04:40:30;99749.03;;;14.03;100.00
27587;BME280;15019;49.002;8.420;2022-09-13T04:42:56;99759.91;;;14.10;100.00
27587;BME280;15019;49.002;8.420;2022-09-13T04:45:21;99751.41;;;14.11;100.00
27587;BME280;15019;49.002;8.420;2022-09-13T04:47:53;99767.53;;;14.11;100.00
27587;BME280;15019;49.002;8.420;2022-09-13T04:50:20;99765.84;;;14.10;100.00
27587;BME280;15019;49.002;8.420;2022-09-13T04:52:46;99763.44;;;14.06;100.00
27587;BME280;15019;49.002;8.420;2022-09-13T04:55:12;99774.47;;;14.06;100.00
27587;BME280;15019;49.002;8.420;2022-09-13T04:57:40;99765.13;;;14.05;100.00
27587;BME280;15019;49.002;8.420;2022-09-13T05:00:06;99764.31;;;14.05;100.00
27587;BME280;15019;49.002;8.420;2022-09-13T05:02:32;99765.19;;;14.02;100.00
27587;BME280;15019;49.002;8.420;2022-09-13T05:04:57;99761.84;;;14.00;100.00
27587;BME280;15019;49.002;8.420;2022-09-13T05:07:22;99770.28;;;14.04;100.00
27587;BME280;15019;49.002;8.420;2022-09-13T05:09:48;99769.38;;;14.06;100.00
27587;BME280;15019;49.002;8.420;2022-09-13T05:12:13;99770.06;;;14.13;100.00
27587;BME280;15019;49.002;8.420;2022-09-13T05:14:38;99775.94;;;14.16;100.00
27587;BME280;15019;49.002;8.420;2022-09-13T05:17:03;99778.44;;;14.18;100.00
27587;BME280;15019;49.002;8.420;2022-09-13T05:19:29;99783.41;;;14.24;100.00
27587;BME280;15019;49.002;8.420;2022-09-13T05:21:54;99780.88;;;14.22;100.00
27587;BME280;15019;49.002;8.420;2022-09-13T05:24:19;99781.69;;;14.24;100.00
27587;BME280;15019;49.002;8.420;2022-09-13T05:26:45;99780.97;;;14.19;100.00
27587;BME280;15019;49.002;8.420;2022-09-13T05:29:11;99782.72;;;14.17;100.00
27587;BME280;15019;49.002;8.420;2022-09-13T05:31:39;99781.03;;;14.16;100.00
27587;BME280;15019;49.002;8.420;2022-09-13T05:34:05;99784.66;;;14.06;100.00
27587;BME280;15019;49.002;8.420;2022-09-13T05:36:31;99781.88;;;14.17;100.00
27587;BME280;15019;49.002;8.420;2022-09-13T05:38:57;99790.09;;;14.29;100.00
27587;BME280;15019;49.002;8.420;2022-09-13T05:41:23;99798.41;;;14.36;100.00
27587;BME280;15019;49.002;8.420;2022-09-13T05:43:48;99811.09;;;14.41;100.00
27587;BME280;15019;49.002;8.420;2022-09-13T05:46:16;99804.34;;;14.37;100.00
27587;BME280;15019;49.002;8.420;2022-09-13T05:48:41;99808.59;;;14.38;100.00
27587;BME280;15019;49.002;8.420;2022-09-13T05:51:09;99805.84;;;14.47;100.00
27587;BME280;15019;49.002;8.420;2022-09-13T05:53:36;99820.31;;;14.46;100.00
27587;BME280;15019;49.002;8.420;2022-09-13T05:56:02;99815.28;;;14.43;100.00
27587;BME280;15019;49.002;8.420;2022-09-13T05:58:27;99822.06;;;14.44;100.00
27587;BME280;15019;49.002;8.420;2022-09-13T06:00:54;99816.81;;;14.50;100.00
27587;BME280;15019;49.002;8.420;2022-09-13T06:03:20;99809.84;;;14.57;100.00
27587;BME280;15019;49.002;8.420;2022-09-13T06:05:46;99816.34;;;14.70;100.00
27587;BME280;15019;49.002;8.420;2022-09-13T06:08:11;99806.84;;;14.75;100.00
27587;BME280;15019;49.002;8.420;2022-09-13T06:10:36;99803.28;;;14.82;100.00
27587;BME280;15019;49.002;8.420;2022-09-13T06:13:01;99792.97;;;14.85;100.00
27587;BME280;15019;49.002;8.420;2022-09-13T06:15:27;99795.94;;;15.02;100.00
27587;BME280;15019;49.002;8.420;2022-09-13T06:17:52;99791.28;;;15.17;100.00
27587;BME280;15019;49.002;8.420;2022-09-13T06:20:17;99804.31;;;15.38;100.00
27587;BME280;15019;49.002;8.420;2022-09-13T06:22:43;99806.34;;;15.58;100.00
27587;BME280;15019;49.002;8.420;2022-09-13T06:25:08;99796.19;;;15.86;100.00
27587;BME280;15019;49.002;8.420;2022-09-13T06:27:33;99786.03;;;16.11;100.00
27587;BME280;15019;49.002;8.420;2022-09-13T06:29:59;99774.69;;;15.92;100.00
27587;BME280;15019;49.002;8.420;2022-09-13T06:32:24;99762.78;;;15.91;100.00
27587;BME280;15019;49.002;8.420;2022-09-13T06:34:49;99762.63;;;15.97;100.00
27587;BME280;15019;49.002;8.420;2022-09-13T06:37:15;99765.03;;;16.29;100.00
27587;BME280;15019;49.002;8.420;2022-09-13T06:39:40;99771.00;;;16.55;100.00
27587;BME280;15019;49.002;8.420;2022-09-13T06:42:05;99765.91;;;16.81;100.00
27587;BME280;15019;49.002;8.420;2022-09-13T06:44:30;99761.84;;;16.99;100.00
27587;BME280;15019;49.002;8.420;2022-09-13T06:46:56;99756.72;;;17.24;100.00
27587;BME280;15019;49.002;8.420;2022-09-13T06:49:21;99764.63;;;17.41;100.00
27587;BME280;15019;49.002;8.420;2022-09-13T06:51:46;99769.34;;;17.51;100.00
27587;BME280;15019;49.002;8.420;2022-09-13T06:54:12;99760.63;;;17.57;100.00
27587;BME280;15019;49.002;8.420;2022-09-13T06:56:37;99758.94;;;17.79;100.00
27587;BME280;15019;49.002;8.420;2022-09-13T06:59:05;99759.59;;;17.84;100.00
27587;BME280;15019;49.002;8.420;2022-09-13T07:04:00;99767.03;;;18.34;100.00
27587;BME280;15019;49.002;8.420;2022-09-13T07:06:31;99763.59;;;18.55;98.87
27587;BME280;15019;49.002;8.420;2022-09-13T07:08:58;99748.56;;;18.46;99.38
27587;BME280;15019;49.002;8.420;2022-09-13T07:11:31;99742.59;;;18.46;100.00
27587;BME280;15019;49.002;8.420;2022-09-13T07:13:58;99740.25;;;18.41;99.86
27587;BME280;15019;49.002;8.420;2022-09-13T07:16:25;99750.63;;;18.38;99.05
27587;BME280;15019;49.002;8.420;2022-09-13T07:18:55;99747.75;;;18.24;98.32
27587;BME280;15019;49.002;8.420;2022-09-13T07:21:21;99743.41;;;18.26;99.62
27587;BME280;15019;49.002;8.420;2022-09-13T07:23:46;99744.66;;;18.38;98.61
27587;BME280;15019;49.002;8.420;2022-09-13T07:26:12;99736.50;;;18.48;100.00
27587;BME280;15019;49.002;8.420;2022-09-13T07:28:40;99740.28;;;18.82;98.48
27587;BME280;15019;49.002;8.420;2022-09-13T07:31:20;99739.63;;;18.77;97.14
27587;BME280;15019;49.002;8.420;2022-09-13T07:33:46;99733.34;;;18.84;95.90
27587;BME280;15019;49.002;8.420;2022-09-13T07:36:13;99745.47;;;18.80;98.42
27587;BME280;15019;49.002;8.420;2022-09-13T07:38:42;99742.38;;;18.92;99.10
27587;BME280;15019;49.002;8.420;2022-09-13T07:41:12;99753.72;;;19.07;94.84
27587;BME280;15019;49.002;8.420;2022-09-13T07:43:37;99748.31;;;19.13;98.38
27587;BME280;15019;49.002;8.420;2022-09-13T07:46:05;99753.94;;;19.21;99.04
27587;BME280;15019;49.002;8.420;2022-09-13T07:48:33;99748.81;;;19.21;97.73
27587;BME280;15019;49.002;8.420;2022-09-13T07:51:01;99748.56;;;19.27;97.06
27587;BME280;15019;49.002;8.420;2022-09-13T07:53:27;99751.88;;;19.29;94.59
27587;BME280;15019;49.002;8.420;2022-09-13T07:55:53;99746.72;;;19.29;96.26
27587;BME280;15019;49.002;8.420;2022-09-13T07:58:23;99740.78;;;19.48;93.81
27587;BME280;15019;49.002;8.420;2022-09-13T08:00:48;99736.00;;;19.59;93.04
27587;BME280;15019;49.002;8.420;2022-09-13T08:03:15;99730.06;;;19.76;89.93
27587;BME280;15019;49.002;8.420;2022-09-13T08:05:42;99729.81;;;19.63;87.75
27587;BME280;15019;49.002;8.420;2022-09-13T08:08:07;99739.59;;;19.73;87.81
27587;BME280;15019;49.002;8.420;2022-09-13T08:10:33;99740.78;;;19.85;91.32
27587;BME280;15019;49.002;8.420;2022-09-13T08:12:59;99737.44;;;19.83;87.79
27587;BME280;15019;49.002;8.420;2022-09-13T08:15:24;99728.22;;;19.96;88.57
27587;BME280;15019;49.002;8.420;2022-09-13T08:17:50;99729.19;;;20.13;88.40
27587;BME280;15019;49.002;8.420;2022-09-13T08:20:15;99730.09;;;20.29;84.53
27587;BME280;15019;49.002;8.420;2022-09-13T08:22:40;99743.16;;;20.60;88.05
27587;BME280;15019;49.002;8.420;2022-09-13T08:25:06;99747.84;;;20.52;83.27
27587;BME280;15019;49.002;8.420;2022-09-13T08:27:31;99736.63;;;20.70;83.37
27587;BME280;15019;49.002;8.420;2022-09-13T08:29:57;99749.31;;;20.91;82.64
27587;BME280;15019;49.002;8.420;2022-09-13T08:32:22;99748.28;;;20.95;80.41
27587;BME280;15019;49.002;8.420;2022-09-13T08:34:47;99746.53;;;20.78;79.79
27587;BME280;15019;49.002;8.420;2022-09-13T08:37:13;99733.47;;;20.65;77.04
27587;BME280;15019;49.002;8.420;2022-09-13T08:39:38;99745.13;;;20.72;77.70
27587;BME280;15019;49.002;8.420;2022-09-13T08:42:18;99745.81;;;20.76;76.15
27587;BME280;15019;49.002;8.420;2022-09-13T08:44:53;99754.47;;;20.91;82.35
27587;BME280;15019;49.002;8.420;2022-09-13T08:50:21;99762.22;;;20.91;74.80
27587;BME280;15019;49.002;8.420;2022-09-13T08:52:59;99767.19;;;21.11;74.81
27587;BME280;15019;49.002;8.420;2022-09-13T09:03:54;99747.53;;;21.41;81.92
27587;BME280;15019;49.002;8.420;2022-09-13T09:06:18;99741.66;;;21.71;78.36
27587;BME280;15019;49.002;8.420;2022-09-13T09:11:28;99745.50;;;22.11;74.29
27587;BME280;15019;49.002;8.420;2022-09-13T09:14:29;99755.66;;;21.98;74.19
27587;BME280;15019;49.002;8.420;2022-09-13T09:16:59;99766.31;;;21.92;74.80
27587;BME280;15019;49.002;8.420;2022-09-13T09:19:29;99757.47;;;21.96;76.52
27587;BME280;15019;49.002;8.420;2022-09-13T09:21:57;99776.94;;;22.17;78.22
27587;BME280;15019;49.002;8.420;2022-09-13T09:24:24;99781.28;;;22.17;75.37
27587;BME280;15019;49.002;8.420;2022-09-13T09:26:52;99780.91;;;22.39;78.36
27587;BME280;15019;49.002;8.420;2022-09-13T09:29:20;99792.13;;;22.23;77.81
27587;BME280;15019;49.002;8.420;2022-09-13T09:32:01;99800.19;;;22.33;77.68
27587;BME280;15019;49.002;8.420;2022-09-13T09:34:36;99792.38;;;22.49;73.62
27587;BME280;15019;49.002;8.420;2022-09-13T09:39:37;99781.06;;;22.95;69.34
27587;BME280;15019;49.002;8.420;2022-09-13T09:42:02;99780.16;;;23.11;71.43
27587;BME280;15019;49.002;8.420;2022-09-13T09:44:29;99772.41;;;23.25;72.95
27587;BME280;15019;49.002;8.420;2022-09-13T09:46:56;99767.38;;;22.79;72.12
27587;BME280;15019;49.002;8.420;2022-09-13T09:49:45;99773.69;;;23.04;73.23
27587;BME280;15019;49.002;8.420;2022-09-13T09:52:15;99769.06;;;23.65;68.65
27587;BME280;15019;49.002;8.420;2022-09-13T09:54:42;99770.88;;;23.78;67.50
27587;BME280;15019;49.002;8.420;2022-09-13T09:57:07;99778.28;;;23.84;71.67
27587;BME280;15019;49.002;8.420;2022-09-13T09:59:33;99783.28;;;23.44;69.54
27587;BME280;15019;49.002;8.420;2022-09-13T10:02:01;99784.88;;;23.32;75.73
27587;BME280;15019;49.002;8.420;2022-09-13T10:04:38;99785.03;;;23.44;67.83
27587;BME280;15019;49.002;8.420;2022-09-13T10:07:08;99779.78;;;23.45;66.33
27587;BME280;15019;49.002;8.420;2022-09-13T10:09:35;99766.72;;;23.75;75.39
27587;BME280;15019;49.002;8.420;2022-09-13T10:12:01;99764.75;;;23.93;69.40
27587;BME280;15019;49.002;8.420;2022-09-13T10:14:37;99768.94;;;24.08;70.39
27587;BME280;15019;49.002;8.420;2022-09-13T10:17:35;99753.53;;;24.59;68.24
27587;BME280;15019;49.002;8.420;2022-09-13T10:20:18;99757.94;;;24.96;64.02
27587;BME280;15019;49.002;8.420;2022-09-13T10:22:45;99753.31;;;25.63;64.59
27587;BME280;15019;49.002;8.420;2022-09-13T10:25:30;99763.00;;;25.85;66.25
27587;BME280;15019;49.002;8.420;2022-09-13T10:27:57;99764.75;;;25.61;62.52
27587;BME280;15019;49.002;8.420;2022-09-13T10:32:54;99759.66;;;26.66;57.00
27587;BME280;15019;49.002;8.420;2022-09-13T10:35:20;99760.91;;;26.95;56.33
27587;BME280;15019;49.002;8.420;2022-09-13T10:37:46;99760.28;;;26.80;60.70
27587;BME280;15019;49.002;8.420;2022-09-13T10:40:31;99756.84;;;26.80;59.31
27587;BME280;15019;49.002;8.420;2022-09-13T10:42:58;99764.69;;;26.91;56.02
27587;BME280;15019;49.002;8.420;2022-09-13T10:45:28;99769.22;;;27.11;60.11
27587;BME280;15019;49.002;8.420;2022-09-13T10:48:03;99770.09;;;26.88;54.51
27587;BME280;15019;49.002;8.420;2022-09-13T10:50:30;99769.84;;;26.69;59.18
27587;BME280;15019;49.002;8.420;2022-09-13T10:52:57;99770.47;;;26.37;63.36
27587;BME280;15019;49.002;8.420;2022-09-13T10:55:38;99768.91;;;26.11;60.32
27587;BME280;15019;49.002;8.420;2022-09-13T11:06:19;99760.38;;;25.61;61.60
27587;BME280;15019;49.002;8.420;2022-09-13T11:11:28;99758.22;;;25.79;65.88
27587;BME280;15019;49.002;8.420;2022-09-13T11:14:27;99745.59;;;25.74;63.38
27587;BME280;15019;49.002;8.420;2022-09-13T11:22:44;99746.28;;;25.40;62.28
27587;BME280;15019;49.002;8.420;2022-09-13T11:30:26;99746.38;;;25.75;62.17
27587;BME280;15019;49.002;8.420;2022-09-13T11:43:52;99739.16;;;26.50;62.15
27587;BME280;15019;49.002;8.420;2022-09-13T11:46:32;99733.34;;;26.35;62.45
27587;BME280;15019;49.002;8.420;2022-09-13T11:56:26;99707.81;;;26.05;59.51
27587;BME280;15019;49.002;8.420;2022-09-13T11:58:59;99696.06;;;25.88;60.40
27587;BME280;15019;49.002;8.420;2022-09-13T12:01:33;99694.38;;;25.87;61.90
27587;BME280;15019;49.002;8.420;2022-09-13T12:04:38;99683.69;;;25.68;62.88
27587;BME280;15019;49.002;8.420;2022-09-13T12:07:23;99671.78;;;25.77;63.14
27587;BME280;15019;49.002;8.420;2022-09-13T12:09:58;99671.72;;;25.89;62.92
27587;BME280;15019;49.002;8.420;2022-09-13T12:12:28;99668.13;;;26.03;60.82
27587;BME280;15019;49.002;8.420;2022-09-13T12:15:06;99664.78;;;25.90;60.26
27587;BME280;15019;49.002;8.420;2022-09-13T12:20:47;99664.34;;;25.72;59.77
27587;BME280;15019;49.002;8.420;2022-09-13T12:23:45;99658.88;;;25.64;59.71
27587;BME280;15019;49.002;8.420;2022-09-13T12:26:20;99647.44;;;25.67;58.05
27587;BME280;15019;49.002;8.420;2022-09-13T12:28:52;99638.38;;;25.72;58.82
27587;BME280;15019;49.002;8.420;2022-09-13T12:31:24;99642.63;;;25.73;57.29
27587;BME280;15019;49.002;8.420;2022-09-13T12:33:50;99637.50;;;25.84;58.22
27587;BME280;15019;49.002;8.420;2022-09-13T12:36:41;99640.25;;;25.70;56.72
27587;BME280;15019;49.002;8.420;2022-09-13T12:42:34;99636.97;;;25.79;56.59
27587;BME280;15019;49.002;8.420;2022-09-13T12:59:20;99644.19;;;26.22;52.72
27587;BME280;15019;49.002;8.420;2022-09-13T13:01:50;99643.03;;;26.26;58.18
27587;BME280;15019;49.002;8.420;2022-09-13T13:04:28;99627.66;;;26.23;56.50
27587;BME280;15019;49.002;8.420;2022-09-13T13:07:19;99618.72;;;26.27;56.63
27587;BME280;15019;49.002;8.420;2022-09-13T13:09:50;99617.72;;;26.17;54.40
27587;BME280;15019;49.002;8.420;2022-09-13T13:12:36;99611.63;;;26.29;53.04
27587;BME280;15019;49.002;8.420;2022-09-13T13:17:47;99615.44;;;26.47;54.18
27587;BME280;15019;49.002;8.420;2022-09-13T13:20:43;99605.25;;;26.44;54.02
27587;BME280;15019;49.002;8.420;2022-09-13T13:33:55;99589.47;;;26.12;57.15
27587;BME280;15019;49.002;8.420;2022-09-13T13:36:43;99595.50;;;26.13;55.42
27587;BME280;15019;49.002;8.420;2022-09-13T13:49:49;99589.81;;;26.08;55.86
27587;BME280;15019;49.002;8.420;2022-09-13T13:58:00;99571.63;;;26.08;55.11
27587;BME280;15019;49.002;8.420;2022-09-13T14:00:28;99563.28;;;26.15;55.60
27587;BME280;15019;49.002;8.420;2022-09-13T14:03:17;99562.78;;;26.21;54.96
27587;BME280;15019;49.002;8.420;2022-09-13T14:06:05;99554.69;;;26.37;56.53
27587;BME280;15019;49.002;8.420;2022-09-13T14:08:49;99555.16;;;26.42;55.62
27587;BME280;15019;49.002;8.420;2022-09-13T14:11:39;99549.94;;;26.42;55.79
27587;BME280;15019;49.002;8.420;2022-09-13T14:20:03;99541.22;;;26.43;55.83
27587;BME280;15019;49.002;8.420;2022-09-13T14:22:30;99528.22;;;26.32;56.37
27587;BME280;15019;49.002;8.420;2022-09-13T14:27:45;99534.84;;;26.36;57.04
27587;BME280;15019;49.002;8.420;2022-09-13T14:30:21;99523.94;;;26.42;58.30
27587;BME280;15019;49.002;8.420;2022-09-13T14:32:49;99515.09;;;26.45;58.72
27587;BME280;15019;49.002;8.420;2022-09-13T14:35:33;99510.72;;;26.34;58.19
27587;BME280;15019;49.002;8.420;2022-09-13T14:38:18;99501.03;;;26.36;58.49
27587;BME280;15019;49.002;8.420;2022-09-13T14:40:48;99506.47;;;26.33;58.35
27587;BME280;15019;49.002;8.420;2022-09-13T14:43:17;99499.38;;;26.35;58.45
27587;BME280;15019;49.002;8.420;2022-09-13T14:45:46;99495.84;;;26.36;58.44
27587;BME280;15019;49.002;8.420;2022-09-13T14:48:21;99495.59;;;26.28;59.07
27587;BME280;15019;49.002;8.420;2022-09-13T14:53:51;99480.72;;;26.30;58.44
27587;BME280;15019;49.002;8.420;2022-09-13T14:58:53;99469.97;;;26.35;59.32
27587;BME280;15019;49.002;8.420;2022-09-13T15:01:31;99459.22;;;26.28;58.81
27587;BME280;15019;49.002;8.420;2022-09-13T15:03:59;99457.09;;;26.33;58.89
27587;BME280;15019;49.002;8.420;2022-09-13T15:06:31;99449.72;;;26.38;58.88
27587;BME280;15019;49.002;8.420;2022-09-13T15:09:14;99449.72;;;26.38;59.57
27587;BME280;15019;49.002;8.420;2022-09-13T15:14:34;99452.59;;;26.35;58.16
27587;BME280;15019;49.002;8.420;2022-09-13T15:17:12;99437.94;;;26.34;58.48
27587;BME280;15019;49.002;8.420;2022-09-13T15:19:48;99439.59;;;26.35;57.25
27587;BME280;15019;49.002;8.420;2022-09-13T15:22:20;99422.78;;;26.39;57.79
27587;BME280;15019;49.002;8.420;2022-09-13T15:24:49;99428.00;;;26.39;58.42
27587;BME280;15019;49.002;8.420;2022-09-13T15:27:42;99430.84;;;26.36;58.51
27587;BME280;15019;49.002;8.420;2022-09-13T15:30:38;99422.34;;;26.34;57.51
27587;BME280;15019;49.002;8.420;2022-09-13T15:35:38;99413.34;;;26.38;57.70
27587;BME280;15019;49.002;8.420;2022-09-13T15:40:46;99404.16;;;26.34;57.72
27587;BME280;15019;49.002;8.420;2022-09-13T15:43:12;99404.88;;;26.36;57.73
27587;BME280;15019;49.002;8.420;2022-09-13T15:45:38;99403.22;;;26.35;58.63
27587;BME280;15019;49.002;8.420;2022-09-13T15:48:03;99405.09;;;26.33;59.16
27587;BME280;15019;49.002;8.420;2022-09-13T15:50:32;99406.28;;;26.29;59.26
27587;BME280;15019;49.002;8.420;2022-09-13T15:52:58;99405.09;;;26.33;59.20
27587;BME280;15019;49.002;8.420;2022-09-13T15:55:25;99403.44;;;26.32;59.15
27587;BME280;15019;49.002;8.420;2022-09-13T15:57:51;99405.59;;;26.27;59.68
27587;BME280;15019;49.002;8.420;2022-09-13T16:00:25;99397.06;;;26.14;59.49
27587;BME280;15019;49.002;8.420;2022-09-13T16:02:51;99394.22;;;26.17;59.46
27587;BME280;15019;49.002;8.420;2022-09-13T16:05:17;99396.69;;;26.18;58.96
27587;BME280;15019;49.002;8.420;2022-09-13T16:07:43;99389.28;;;26.14;59.20
27587;BME280;15019;49.002;8.420;2022-09-13T16:10:17;99393.41;;;26.16;59.52
27587;BME280;15019;49.002;8.420;2022-09-13T16:12:44;99389.50;;;26.11;59.06
27587;BME280;15019;49.002;8.420;2022-09-13T16:15:10;99389.50;;;26.11;59.04
27587;BME280;15019;49.002;8.420;2022-09-13T16:17:35;99394.72;;;26.11;59.28
27587;BME280;15019;49.002;8.420;2022-09-13T16:20:01;99391.91;;;26.03;59.60